sensor_id;sensor_type;location;lat;lon;timestamp;P1;durP1;ratioP1;P2;durP2;ratioP2
14013;SDS011;49110;52.584;13.408;2023-10-19T00:00:14;196.07;;;186.00;;
14013;SDS011;49110;52.584;13.408;2023-10-19T00:01:21;199.57;;;189.38;;
14013;SDS011;49110;52.584;13.408;2023-10-19T00:02:25;192.10;;;181.93;;
14013;SDS011;49110;52.584;13.408;2023-10-19T00:03:26;184.57;;;174.90;;
14013;SDS011;49110;52.584;13.408;2023-10-19T00:04:27;187.70;;;177.93;;
14013;SDS011;49110;52.584;13.408;2023-10-19T00:05:33;192.40;;;182.40;;
14013;SDS011;49110;52.584;13.408;2023-10-19T00:06:33;196.87;;;186.70;;
14013;SDS011;49110;52.584;13.408;2023-10-19T00:07:33;194.23;;;184.17;;
14013;SDS011;49110;52.584;13.408;2023-10-19T00:08:34;183.43;;;173.73;;
14013;SDS011;49110;52.584;13.408;2023-10-19T00:09:46;174.13;;;164.87;;
14013;SDS011;49110;52.584;13.408;2023-10-19T00:10:54;173.87;;;164.70;;
14013;SDS011;49110;52.584;13.408;2023-10-19T00:12:10;161.32;;;152.77;;
14013;SDS011;49110;52.584;13.408;2023-10-19T00:13:11;168.20;;;159.50;;
14013;SDS011;49110;52.584;13.408;2023-10-19T00:14:13;180.40;;;171.15;;
14013;SDS011;49110;52.584;13.408;2023-10-19T00:15:20;169.97;;;160.97;;
14013;SDS011;49110;52.584;13.408;2023-10-19T00:16:23;166.75;;;158.00;;
14013;SDS011;49110;52.584;13.408;2023-10-19T00:17:29;167.43;;;158.65;;
14013;SDS011;49110;52.584;13.408;2023-10-19T00:18:32;178.35;;;169.05;;
14013;SDS011;49110;52.584;13.408;2023-10-19T00:19:34;182.77;;;173.18;;
14013;SDS011;49110;52.584;13.408;2023-10-19T00:20:57;173.23;;;164.17;;
14013;SDS011;49110;52.584;13.408;2023-10-19T00:22:20;162.27;;;153.57;;
14013;SDS011;49110;52.584;13.408;2023-10-19T00:23:21;187.77;;;177.93;;
14013;SDS011;49110;52.584;13.408;2023-10-19T00:24:29;189.97;;;180.17;;
14013;SDS011;49110;52.584;13.408;2023-10-19T00:25:32;191.17;;;181.33;;
14013;SDS011;49110;52.584;13.408;2023-10-19T00:26:34;194.13;;;184.20;;
14013;SDS011;49110;52.584;13.408;2023-10-19T00:27:35;183.70;;;174.03;;
14013;SDS011;49110;52.584;13.408;2023-10-19T00:28:35;185.80;;;176.10;;
14013;SDS011;49110;52.584;13.408;2023-10-19T00:29:38;189.30;;;179.50;;
14013;SDS011;49110;52.584;13.408;2023-10-19T00:30:48;177.93;;;168.77;;
14013;SDS011;49110;52.584;13.408;2023-10-19T00:31:52;186.63;;;177.07;;
14013;SDS011;49110;52.584;13.408;2023-10-19T00:32:52;194.23;;;184.20;;
14013;SDS011;49110;52.584;13.408;2023-10-19T00:33:54;190.73;;;180.90;;
14013;SDS011;49110;52.584;13.408;2023-10-19T00:34:55;196.23;;;186.33;;
14013;SDS011;49110;52.584;13.408;2023-10-19T00:35:55;197.67;;;187.40;;
14013;SDS011;49110;52.584;13.408;2023-10-19T00:37:08;179.73;;;170.25;;
14013;SDS011;49110;52.584;13.408;2023-10-19T00:38:10;178.90;;;169.50;;
14013;SDS011;49110;52.584;13.408;2023-10-19T00:39:39;155.53;;;147.30;;
14013;SDS011;49110;52.584;13.408;2023-10-19T00:40:53;163.90;;;155.23;;
14013;SDS011;49110;52.584;13.408;2023-10-19T00:41:58;184.73;;;175.03;;
14013;SDS011;49110;52.584;13.408;2023-10-19T00:43:02;186.52;;;177.02;;
14013;SDS011;49110;52.584;13.408;2023-10-19T00:44:08;182.45;;;172.98;;
14013;SDS011;49110;52.584;13.408;2023-10-19T00:45:11;191.47;;;181.60;;
14013;SDS011;49110;52.584;13.408;2023-10-19T00:46:14;190.80;;;180.83;;
14013;SDS011;49110;52.584;13.408;2023-10-19T00:47:17;186.82;;;177.15;;
14013;SDS011;49110;52.584;13.408;2023-10-19T00:48:24;192.25;;;182.20;;
14013;SDS011;49110;52.584;13.408;2023-10-19T00:49:26;197.70;;;187.50;;
14013;SDS011;49110;52.584;13.408;2023-10-19T00:50:26;190.07;;;180.33;;
14013;SDS011;49110;52.584;13.408;2023-10-19T00:51:32;191.82;;;182.05;;
14013;SDS011;49110;52.584;13.408;2023-10-19T00:52:37;181.23;;;171.90;;
14013;SDS011;49110;52.584;13.408;2023-10-19T00:53:43;191.67;;;181.90;;
14013;SDS011;49110;52.584;13.408;2023-10-19T00:54:44;180.07;;;170.77;;
14013;SDS011;49110;52.584;13.408;2023-10-19T00:55:52;180.73;;;171.13;;
14013;SDS011;49110;52.584;13.408;2023-10-19T00:56:53;188.70;;;179.03;;
14013;SDS011;49110;52.584;13.408;2023-10-19T00:58:00;187.50;;;177.57;;
14013;SDS011;49110;52.584;13.408;2023-10-19T00:59:09;177.43;;;168.07;;
14013;SDS011;49110;52.584;13.408;2023-10-19T01:00:14;184.40;;;174.67;;
14013;SDS011;49110;52.584;13.408;2023-10-19T01:01:23;182.77;;;173.17;;
14013;SDS011;49110;52.584;13.408;2023-10-19T01:02:28;185.27;;;175.27;;
14013;SDS011;49110;52.584;13.408;2023-10-19T01:03:28;173.67;;;164.60;;
14013;SDS011;49110;52.584;13.408;2023-10-19T01:04:32;185.60;;;175.68;;
14013;SDS011;49110;52.584;13.408;2023-10-19T01:05:34;181.80;;;171.87;;
14013;SDS011;49110;52.584;13.408;2023-10-19T01:06:37;177.50;;;168.23;;
14013;SDS011;49110;52.584;13.408;2023-10-19T01:07:38;183.73;;;174.10;;
14013;SDS011;49110;52.584;13.408;2023-10-19T01:08:40;185.40;;;175.77;;
14013;SDS011;49110;52.584;13.408;2023-10-19T01:09:42;189.60;;;179.63;;
14013;SDS011;49110;52.584;13.408;2023-10-19T01:10:44;182.53;;;172.87;;
14013;SDS011;49110;52.584;13.408;2023-10-19T01:11:46;186.63;;;177.00;;
14013;SDS011;49110;52.584;13.408;2023-10-19T01:12:51;183.07;;;173.60;;
14013;SDS011;49110;52.584;13.408;2023-10-19T01:13:51;182.80;;;173.23;;
14013;SDS011;49110;52.584;13.408;2023-10-19T01:16:27;156.52;;;148.07;;
14013;SDS011;49110;52.584;13.408;2023-10-19T01:17:28;166.83;;;158.20;;
14013;SDS011;49110;52.584;13.408;2023-10-19T01:18:31;181.90;;;172.43;;
14013;SDS011;49110;52.584;13.408;2023-10-19T01:19:32;175.33;;;165.93;;
14013;SDS011;49110;52.584;13.408;2023-10-19T01:20:34;182.00;;;172.37;;
14013;SDS011;49110;52.584;13.408;2023-10-19T01:21:48;163.13;;;154.23;;
14013;SDS011;49110;52.584;13.408;2023-10-19T01:22:53;175.20;;;165.97;;
14013;SDS011;49110;52.584;13.408;2023-10-19T01:24:09;170.73;;;161.70;;
14013;SDS011;49110;52.584;13.408;2023-10-19T01:25:12;185.50;;;175.57;;
14013;SDS011;49110;52.584;13.408;2023-10-19T01:26:20;182.43;;;172.68;;
14013;SDS011;49110;52.584;13.408;2023-10-19T01:27:26;183.17;;;173.63;;
14013;SDS011;49110;52.584;13.408;2023-10-19T01:29:48;174.93;;;165.57;;
14013;SDS011;49110;52.584;13.408;2023-10-19T01:31:00;175.63;;;166.37;;
14013;SDS011;49110;52.584;13.408;2023-10-19T01:32:06;174.27;;;165.13;;
14013;SDS011;49110;52.584;13.408;2023-10-19T01:33:08;185.40;;;175.57;;
14013;SDS011;49110;52.584;13.408;2023-10-19T01:34:12;193.00;;;182.90;;
14013;SDS011;49110;52.584;13.408;2023-10-19T01:35:14;195.45;;;185.35;;
14013;SDS011;49110;52.584;13.408;2023-10-19T01:36:14;191.63;;;181.77;;
14013;SDS011;49110;52.584;13.408;2023-10-19T01:37:24;179.50;;;170.10;;
14013;SDS011;49110;52.584;13.408;2023-10-19T01:38:24;188.80;;;179.00;;
14013;SDS011;49110;52.584;13.408;2023-10-19T01:39:25;182.83;;;173.13;;
14013;SDS011;49110;52.584;13.408;2023-10-19T01:40:26;183.77;;;174.07;;
14013;SDS011;49110;52.584;13.408;2023-10-19T01:41:30;183.00;;;173.47;;
14013;SDS011;49110;52.584;13.408;2023-10-19T01:42:31;185.43;;;175.47;;
14013;SDS011;49110;52.584;13.408;2023-10-19T01:43:31;195.90;;;185.63;;
14013;SDS011;49110;52.584;13.408;2023-10-19T01:44:32;198.50;;;188.30;;
14013;SDS011;49110;52.584;13.408;2023-10-19T01:45:35;205.30;;;194.83;;
14013;SDS011;49110;52.584;13.408;2023-10-19T01:46:37;203.43;;;193.10;;
14013;SDS011;49110;52.584;13.408;2023-10-19T01:47:37;207.87;;;197.27;;
14013;SDS011;49110;52.584;13.408;2023-10-19T01:48:40;199.73;;;189.45;;
14013;SDS011;49110;52.584;13.408;2023-10-19T01:49:42;191.50;;;181.43;;
14013;SDS011;49110;52.584;13.408;2023-10-19T01:50:45;202.65;;;192.18;;
14013;SDS011;49110;52.584;13.408;2023-10-19T01:51:47;206.77;;;196.17;;
14013;SDS011;49110;52.584;13.408;2023-10-19T01:52:47;198.50;;;187.87;;
14013;SDS011;49110;52.584;13.408;2023-10-19T01:53:48;198.43;;;188.33;;
14013;SDS011;49110;52.584;13.408;2023-10-19T01:54:49;193.65;;;183.55;;
14013;SDS011;49110;52.584;13.408;2023-10-19T01:55:55;187.73;;;178.07;;
14013;SDS011;49110;52.584;13.408;2023-10-19T01:56:59;189.90;;;179.87;;
14013;SDS011;49110;52.584;13.408;2023-10-19T01:58:01;202.00;;;191.68;;
14013;SDS011;49110;52.584;13.408;2023-10-19T01:59:02;184.57;;;174.90;;
14013;SDS011;49110;52.584;13.408;2023-10-19T02:00:08;187.83;;;177.90;;
14013;SDS011;49110;52.584;13.408;2023-10-19T02:01:11;188.20;;;178.43;;
14013;SDS011;49110;52.584;13.408;2023-10-19T02:02:12;184.77;;;175.23;;
14013;SDS011;49110;52.584;13.408;2023-10-19T02:03:13;185.30;;;175.57;;
14013;SDS011;49110;52.584;13.408;2023-10-19T02:04:13;193.07;;;183.03;;
14013;SDS011;49110;52.584;13.408;2023-10-19T02:05:13;191.83;;;181.80;;
14013;SDS011;49110;52.584;13.408;2023-10-19T02:06:15;183.53;;;173.83;;
14013;SDS011;49110;52.584;13.408;2023-10-19T02:07:17;191.23;;;181.20;;
14013;SDS011;49110;52.584;13.408;2023-10-19T02:08:18;185.83;;;176.07;;
14013;SDS011;49110;52.584;13.408;2023-10-19T02:09:25;173.03;;;163.90;;
14013;SDS011;49110;52.584;13.408;2023-10-19T02:10:31;177.38;;;167.63;;
14013;SDS011;49110;52.584;13.408;2023-10-19T02:11:32;185.43;;;175.63;;
14013;SDS011;49110;52.584;13.408;2023-10-19T02:12:32;176.57;;;167.17;;
14013;SDS011;49110;52.584;13.408;2023-10-19T02:13:34;181.50;;;171.90;;
14013;SDS011;49110;52.584;13.408;2023-10-19T02:14:35;184.13;;;174.68;;
14013;SDS011;49110;52.584;13.408;2023-10-19T02:15:37;173.13;;;163.80;;
14013;SDS011;49110;52.584;13.408;2023-10-19T02:16:37;182.13;;;172.57;;
14013;SDS011;49110;52.584;13.408;2023-10-19T02:17:38;181.00;;;171.53;;
14013;SDS011;49110;52.584;13.408;2023-10-19T02:18:40;180.87;;;171.50;;
14013;SDS011;49110;52.584;13.408;2023-10-19T02:19:42;175.43;;;166.13;;
14013;SDS011;49110;52.584;13.408;2023-10-19T02:20:43;175.43;;;166.13;;
14013;SDS011;49110;52.584;13.408;2023-10-19T02:21:48;172.63;;;163.47;;
14013;SDS011;49110;52.584;13.408;2023-10-19T02:22:52;173.38;;;164.15;;
14013;SDS011;49110;52.584;13.408;2023-10-19T02:23:52;174.53;;;165.27;;
14013;SDS011;49110;52.584;13.408;2023-10-19T02:24:53;171.37;;;162.23;;
14013;SDS011;49110;52.584;13.408;2023-10-19T02:25:53;181.10;;;171.33;;
14013;SDS011;49110;52.584;13.408;2023-10-19T02:26:55;189.30;;;179.43;;
14013;SDS011;49110;52.584;13.408;2023-10-19T02:27:57;181.40;;;171.32;;
14013;SDS011;49110;52.584;13.408;2023-10-19T02:28:57;167.93;;;159.07;;
14013;SDS011;49110;52.584;13.408;2023-10-19T02:29:58;177.20;;;167.70;;
14013;SDS011;49110;52.584;13.408;2023-10-19T02:30:58;177.57;;;168.17;;
14013;SDS011;49110;52.584;13.408;2023-10-19T02:32:11;168.30;;;159.20;;
14013;SDS011;49110;52.584;13.408;2023-10-19T02:33:11;167.73;;;158.60;;
14013;SDS011;49110;52.584;13.408;2023-10-19T02:34:12;170.17;;;160.93;;
14013;SDS011;49110;52.584;13.408;2023-10-19T02:35:15;174.97;;;165.57;;
14013;SDS011;49110;52.584;13.408;2023-10-19T02:36:15;176.13;;;166.83;;
14013;SDS011;49110;52.584;13.408;2023-10-19T02:37:16;188.50;;;178.33;;
14013;SDS011;49110;52.584;13.408;2023-10-19T02:38:16;186.60;;;177.00;;
14013;SDS011;49110;52.584;13.408;2023-10-19T02:39:17;178.53;;;169.07;;
14013;SDS011;49110;52.584;13.408;2023-10-19T02:40:17;178.27;;;168.80;;
14013;SDS011;49110;52.584;13.408;2023-10-19T02:41:23;167.33;;;158.40;;
14013;SDS011;49110;52.584;13.408;2023-10-19T02:42:23;180.23;;;170.73;;
14013;SDS011;49110;52.584;13.408;2023-10-19T02:43:24;175.20;;;165.60;;
14013;SDS011;49110;52.584;13.408;2023-10-19T02:44:25;181.33;;;171.83;;
14013;SDS011;49110;52.584;13.408;2023-10-19T02:45:25;188.40;;;178.63;;
14013;SDS011;49110;52.584;13.408;2023-10-19T02:46:33;186.10;;;176.33;;
14013;SDS011;49110;52.584;13.408;2023-10-19T02:47:34;183.50;;;173.80;;
14013;SDS011;49110;52.584;13.408;2023-10-19T02:48:35;188.47;;;178.57;;
14013;SDS011;49110;52.584;13.408;2023-10-19T02:49:35;187.97;;;178.20;;
14013;SDS011;49110;52.584;13.408;2023-10-19T02:50:39;185.97;;;176.17;;
14013;SDS011;49110;52.584;13.408;2023-10-19T02:51:41;177.50;;;168.17;;
14013;SDS011;49110;52.584;13.408;2023-10-19T02:52:46;194.63;;;184.55;;
14013;SDS011;49110;52.584;13.408;2023-10-19T02:53:46;187.40;;;177.63;;
14013;SDS011;49110;52.584;13.408;2023-10-19T02:54:46;192.73;;;182.33;;
14013;SDS011;49110;52.584;13.408;2023-10-19T02:55:47;179.50;;;169.93;;
14013;SDS011;49110;52.584;13.408;2023-10-19T02:56:52;188.23;;;178.33;;
14013;SDS011;49110;52.584;13.408;2023-10-19T02:57:54;191.93;;;181.80;;
14013;SDS011;49110;52.584;13.408;2023-10-19T02:58:54;186.80;;;176.87;;
14013;SDS011;49110;52.584;13.408;2023-10-19T02:59:59;197.82;;;187.48;;
14013;SDS011;49110;52.584;13.408;2023-10-19T03:01:00;201.43;;;191.00;;
14013;SDS011;49110;52.584;13.408;2023-10-19T03:02:00;199.07;;;188.57;;
14013;SDS011;49110;52.584;13.408;2023-10-19T03:03:17;171.50;;;162.23;;
14013;SDS011;49110;52.584;13.408;2023-10-19T03:04:17;199.10;;;188.63;;
14013;SDS011;49110;52.584;13.408;2023-10-19T03:05:18;194.73;;;184.73;;
14013;SDS011;49110;52.584;13.408;2023-10-19T03:06:20;187.73;;;177.83;;
14013;SDS011;49110;52.584;13.408;2023-10-19T03:07:21;194.77;;;184.55;;
14013;SDS011;49110;52.584;13.408;2023-10-19T03:08:22;188.13;;;178.43;;
14013;SDS011;49110;52.584;13.408;2023-10-19T03:09:26;182.60;;;172.90;;
14013;SDS011;49110;52.584;13.408;2023-10-19T03:10:26;176.60;;;167.30;;
14013;SDS011;49110;52.584;13.408;2023-10-19T03:11:53;156.50;;;148.10;;
14013;SDS011;49110;52.584;13.408;2023-10-19T03:12:55;171.48;;;162.18;;
14013;SDS011;49110;52.584;13.408;2023-10-19T03:13:57;177.23;;;167.65;;
14013;SDS011;49110;52.584;13.408;2023-10-19T03:14:58;179.33;;;169.77;;
14013;SDS011;49110;52.584;13.408;2023-10-19T03:16:00;175.57;;;166.20;;
14013;SDS011;49110;52.584;13.408;2023-10-19T03:17:01;185.97;;;176.33;;
14013;SDS011;49110;52.584;13.408;2023-10-19T03:18:01;185.90;;;176.10;;
14013;SDS011;49110;52.584;13.408;2023-10-19T03:19:04;176.03;;;166.83;;
14013;SDS011;49110;52.584;13.408;2023-10-19T03:20:05;176.27;;;166.90;;
14013;SDS011;49110;52.584;13.408;2023-10-19T03:21:10;177.18;;;167.27;;
14013;SDS011;49110;52.584;13.408;2023-10-19T03:22:11;182.97;;;173.33;;
14013;SDS011;49110;52.584;13.408;2023-10-19T03:23:11;182.00;;;172.47;;
14013;SDS011;49110;52.584;13.408;2023-10-19T03:24:14;187.00;;;177.18;;
14013;SDS011;49110;52.584;13.408;2023-10-19T03:25:33;163.02;;;154.10;;
14013;SDS011;49110;52.584;13.408;2023-10-19T03:26:52;165.82;;;156.95;;
14013;SDS011;49110;52.584;13.408;2023-10-19T03:27:54;186.43;;;176.53;;
14013;SDS011;49110;52.584;13.408;2023-10-19T03:28:58;187.43;;;177.33;;
14013;SDS011;49110;52.584;13.408;2023-10-19T03:30:02;181.27;;;171.57;;
14013;SDS011;49110;52.584;13.408;2023-10-19T03:31:03;187.53;;;176.97;;
14013;SDS011;49110;52.584;13.408;2023-10-19T03:32:05;182.23;;;172.57;;
14013;SDS011;49110;52.584;13.408;2023-10-19T03:33:06;191.07;;;181.20;;
14013;SDS011;49110;52.584;13.408;2023-10-19T03:34:14;181.77;;;172.07;;
14013;SDS011;49110;52.584;13.408;2023-10-19T03:35:17;174.45;;;165.27;;
14013;SDS011;49110;52.584;13.408;2023-10-19T03:36:23;179.93;;;170.43;;
14013;SDS011;49110;52.584;13.408;2023-10-19T03:37:26;172.60;;;163.53;;
14013;SDS011;49110;52.584;13.408;2023-10-19T03:38:30;177.32;;;168.00;;
14013;SDS011;49110;52.584;13.408;2023-10-19T03:39:36;178.33;;;168.77;;
14013;SDS011;49110;52.584;13.408;2023-10-19T03:40:37;188.20;;;178.27;;
14013;SDS011;49110;52.584;13.408;2023-10-19T03:41:39;186.37;;;176.57;;
14013;SDS011;49110;52.584;13.408;2023-10-19T03:42:44;178.43;;;168.90;;
14013;SDS011;49110;52.584;13.408;2023-10-19T03:43:48;188.13;;;178.13;;
14013;SDS011;49110;52.584;13.408;2023-10-19T03:44:51;183.07;;;173.33;;
14013;SDS011;49110;52.584;13.408;2023-10-19T03:45:55;198.70;;;188.17;;
14013;SDS011;49110;52.584;13.408;2023-10-19T03:46:58;180.33;;;170.90;;
14013;SDS011;49110;52.584;13.408;2023-10-19T03:48:04;184.87;;;174.93;;
14013;SDS011;49110;52.584;13.408;2023-10-19T03:49:08;182.47;;;172.77;;
14013;SDS011;49110;52.584;13.408;2023-10-19T03:50:12;189.50;;;179.30;;
14013;SDS011;49110;52.584;13.408;2023-10-19T03:51:20;179.53;;;169.67;;
14013;SDS011;49110;52.584;13.408;2023-10-19T03:52:24;182.80;;;173.03;;
14013;SDS011;49110;52.584;13.408;2023-10-19T03:53:30;179.35;;;169.88;;
14013;SDS011;49110;52.584;13.408;2023-10-19T03:54:32;189.17;;;179.07;;
14013;SDS011;49110;52.584;13.408;2023-10-19T03:55:33;187.93;;;178.10;;
14013;SDS011;49110;52.584;13.408;2023-10-19T03:56:38;182.33;;;172.83;;
14013;SDS011;49110;52.584;13.408;2023-10-19T03:57:38;195.03;;;184.73;;
14013;SDS011;49110;52.584;13.408;2023-10-19T03:58:46;192.27;;;182.07;;
14013;SDS011;49110;52.584;13.408;2023-10-19T03:59:51;196.90;;;186.67;;
14013;SDS011;49110;52.584;13.408;2023-10-19T04:00:56;182.60;;;172.90;;
14013;SDS011;49110;52.584;13.408;2023-10-19T04:02:01;189.13;;;178.98;;
14013;SDS011;49110;52.584;13.408;2023-10-19T04:03:09;198.77;;;188.20;;
14013;SDS011;49110;52.584;13.408;2023-10-19T04:04:10;200.18;;;189.90;;
14013;SDS011;49110;52.584;13.408;2023-10-19T04:05:11;202.47;;;191.87;;
14013;SDS011;49110;52.584;13.408;2023-10-19T04:06:15;201.35;;;190.82;;
14013;SDS011;49110;52.584;13.408;2023-10-19T04:07:15;192.40;;;182.43;;
14013;SDS011;49110;52.584;13.408;2023-10-19T04:08:22;184.43;;;174.53;;
14013;SDS011;49110;52.584;13.408;2023-10-19T04:09:26;185.10;;;175.20;;
14013;SDS011;49110;52.584;13.408;2023-10-19T04:10:29;192.18;;;181.82;;
14013;SDS011;49110;52.584;13.408;2023-10-19T04:11:30;193.93;;;183.83;;
14013;SDS011;49110;52.584;13.408;2023-10-19T04:12:47;173.00;;;163.70;;
14013;SDS011;49110;52.584;13.408;2023-10-19T04:13:51;186.27;;;176.37;;
14013;SDS011;49110;52.584;13.408;2023-10-19T04:14:53;184.02;;;174.23;;
14013;SDS011;49110;52.584;13.408;2023-10-19T04:15:53;191.40;;;181.23;;
14013;SDS011;49110;52.584;13.408;2023-10-19T04:16:54;179.13;;;169.70;;
14013;SDS011;49110;52.584;13.408;2023-10-19T04:17:55;187.70;;;177.87;;
14013;SDS011;49110;52.584;13.408;2023-10-19T04:18:58;189.27;;;179.32;;
14013;SDS011;49110;52.584;13.408;2023-10-19T04:19:59;190.83;;;180.83;;
14013;SDS011;49110;52.584;13.408;2023-10-19T04:21:08;180.93;;;171.23;;
14013;SDS011;49110;52.584;13.408;2023-10-19T04:22:08;192.07;;;181.83;;
14013;SDS011;49110;52.584;13.408;2023-10-19T04:23:11;182.23;;;172.43;;
14013;SDS011;49110;52.584;13.408;2023-10-19T04:24:14;196.80;;;186.63;;
14013;SDS011;49110;52.584;13.408;2023-10-19T04:25:17;187.27;;;177.40;;
14013;SDS011;49110;52.584;13.408;2023-10-19T04:26:37;169.03;;;159.93;;
14013;SDS011;49110;52.584;13.408;2023-10-19T04:27:38;184.97;;;175.07;;
14013;SDS011;49110;52.584;13.408;2023-10-19T04:28:44;186.20;;;176.40;;
14013;SDS011;49110;52.584;13.408;2023-10-19T04:29:45;188.73;;;178.73;;
14013;SDS011;49110;52.584;13.408;2023-10-19T04:30:45;193.33;;;183.27;;
14013;SDS011;49110;52.584;13.408;2023-10-19T04:31:48;191.37;;;181.07;;
14013;SDS011;49110;52.584;13.408;2023-10-19T04:32:54;185.17;;;175.23;;
14013;SDS011;49110;52.584;13.408;2023-10-19T04:33:57;186.60;;;176.50;;
14013;SDS011;49110;52.584;13.408;2023-10-19T04:34:58;202.67;;;191.93;;
14013;SDS011;49110;52.584;13.408;2023-10-19T04:35:58;207.57;;;196.40;;
14013;SDS011;49110;52.584;13.408;2023-10-19T04:37:00;215.35;;;203.90;;
14013;SDS011;49110;52.584;13.408;2023-10-19T04:38:05;197.47;;;187.03;;
14013;SDS011;49110;52.584;13.408;2023-10-19T04:39:08;196.97;;;186.40;;
14013;SDS011;49110;52.584;13.408;2023-10-19T04:40:13;198.63;;;187.97;;
14013;SDS011;49110;52.584;13.408;2023-10-19T04:41:14;195.97;;;185.50;;
14013;SDS011;49110;52.584;13.408;2023-10-19T04:42:15;203.00;;;192.43;;
14013;SDS011;49110;52.584;13.408;2023-10-19T04:43:15;212.57;;;201.27;;
14013;SDS011;49110;52.584;13.408;2023-10-19T04:44:21;212.65;;;201.13;;
14013;SDS011;49110;52.584;13.408;2023-10-19T04:45:22;212.13;;;200.97;;
14013;SDS011;49110;52.584;13.408;2023-10-19T04:46:23;212.80;;;201.63;;
14013;SDS011;49110;52.584;13.408;2023-10-19T04:47:24;209.07;;;198.03;;
14013;SDS011;49110;52.584;13.408;2023-10-19T04:48:24;198.50;;;187.90;;
14013;SDS011;49110;52.584;13.408;2023-10-19T04:49:24;196.60;;;186.27;;
14013;SDS011;49110;52.584;13.408;2023-10-19T04:50:25;200.50;;;189.90;;
14013;SDS011;49110;52.584;13.408;2023-10-19T04:51:25;201.20;;;190.70;;
14013;SDS011;49110;52.584;13.408;2023-10-19T04:52:26;210.10;;;199.13;;
14013;SDS011;49110;52.584;13.408;2023-10-19T04:53:27;194.23;;;183.90;;
14013;SDS011;49110;52.584;13.408;2023-10-19T04:54:27;200.73;;;190.10;;
14013;SDS011;49110;52.584;13.408;2023-10-19T04:55:28;200.87;;;190.07;;
14013;SDS011;49110;52.584;13.408;2023-10-19T04:56:30;202.17;;;191.20;;
14013;SDS011;49110;52.584;13.408;2023-10-19T04:57:31;203.10;;;192.27;;
14013;SDS011;49110;52.584;13.408;2023-10-19T04:58:32;194.97;;;184.37;;
14013;SDS011;49110;52.584;13.408;2023-10-19T04:59:33;198.73;;;187.67;;
14013;SDS011;49110;52.584;13.408;2023-10-19T05:00:34;195.00;;;184.73;;
14013;SDS011;49110;52.584;13.408;2023-10-19T05:01:34;201.23;;;190.60;;
14013;SDS011;49110;52.584;13.408;2023-10-19T05:02:35;203.77;;;192.93;;
14013;SDS011;49110;52.584;13.408;2023-10-19T05:03:35;208.73;;;197.83;;
14013;SDS011;49110;52.584;13.408;2023-10-19T05:04:36;204.60;;;193.70;;
14013;SDS011;49110;52.584;13.408;2023-10-19T05:05:36;204.40;;;193.03;;
14013;SDS011;49110;52.584;13.408;2023-10-19T05:06:38;207.17;;;196.13;;
14013;SDS011;49110;52.584;13.408;2023-10-19T05:07:39;208.03;;;197.00;;
14013;SDS011;49110;52.584;13.408;2023-10-19T05:08:39;217.87;;;206.23;;
14013;SDS011;49110;52.584;13.408;2023-10-19T05:09:40;215.40;;;204.00;;
14013;SDS011;49110;52.584;13.408;2023-10-19T05:10:40;216.30;;;204.70;;
14013;SDS011;49110;52.584;13.408;2023-10-19T05:11:42;210.77;;;199.63;;
14013;SDS011;49110;52.584;13.408;2023-10-19T05:12:44;210.98;;;199.63;;
14013;SDS011;49110;52.584;13.408;2023-10-19T05:13:44;208.07;;;196.93;;
14013;SDS011;49110;52.584;13.408;2023-10-19T05:14:45;208.13;;;197.03;;
14013;SDS011;49110;52.584;13.408;2023-10-19T05:15:45;219.33;;;207.53;;
14013;SDS011;49110;52.584;13.408;2023-10-19T05:16:47;206.30;;;195.38;;
14013;SDS011;49110;52.584;13.408;2023-10-19T05:17:48;195.90;;;185.27;;
14013;SDS011;49110;52.584;13.408;2023-10-19T05:18:48;196.13;;;185.73;;
14013;SDS011;49110;52.584;13.408;2023-10-19T05:19:49;200.07;;;189.17;;
14013;SDS011;49110;52.584;13.408;2023-10-19T05:20:49;195.70;;;185.30;;
14013;SDS011;49110;52.584;13.408;2023-10-19T05:21:55;189.90;;;179.90;;
14013;SDS011;49110;52.584;13.408;2023-10-19T05:22:55;194.83;;;184.47;;
14013;SDS011;49110;52.584;13.408;2023-10-19T05:23:58;208.93;;;198.20;;
14013;SDS011;49110;52.584;13.408;2023-10-19T05:25:00;210.93;;;199.87;;
14013;SDS011;49110;52.584;13.408;2023-10-19T05:26:02;219.93;;;208.33;;
14013;SDS011;49110;52.584;13.408;2023-10-19T05:27:03;212.70;;;201.17;;
14013;SDS011;49110;52.584;13.408;2023-10-19T05:28:05;201.47;;;190.77;;
14013;SDS011;49110;52.584;13.408;2023-10-19T05:29:06;198.60;;;188.05;;
14013;SDS011;49110;52.584;13.408;2023-10-19T05:30:06;214.63;;;203.20;;
14013;SDS011;49110;52.584;13.408;2023-10-19T05:31:10;203.17;;;192.47;;
14013;SDS011;49110;52.584;13.408;2023-10-19T05:32:12;203.03;;;192.07;;
14013;SDS011;49110;52.584;13.408;2023-10-19T05:33:12;205.43;;;194.33;;
14013;SDS011;49110;52.584;13.408;2023-10-19T05:34:12;202.97;;;192.23;;
14013;SDS011;49110;52.584;13.408;2023-10-19T05:35:16;203.93;;;193.17;;
14013;SDS011;49110;52.584;13.408;2023-10-19T05:36:22;207.27;;;196.27;;
14013;SDS011;49110;52.584;13.408;2023-10-19T05:37:25;209.88;;;198.85;;
14013;SDS011;49110;52.584;13.408;2023-10-19T05:38:29;198.17;;;187.50;;
14013;SDS011;49110;52.584;13.408;2023-10-19T05:39:31;193.65;;;183.20;;
14013;SDS011;49110;52.584;13.408;2023-10-19T05:40:33;215.93;;;204.40;;
14013;SDS011;49110;52.584;13.408;2023-10-19T05:41:35;206.13;;;195.10;;
14013;SDS011;49110;52.584;13.408;2023-10-19T05:42:37;207.67;;;196.67;;
14013;SDS011;49110;52.584;13.408;2023-10-19T05:43:38;209.20;;;198.07;;
14013;SDS011;49110;52.584;13.408;2023-10-19T05:44:39;217.50;;;205.90;;
14013;SDS011;49110;52.584;13.408;2023-10-19T05:45:39;216.80;;;205.27;;
14013;SDS011;49110;52.584;13.408;2023-10-19T05:46:40;214.20;;;202.73;;
14013;SDS011;49110;52.584;13.408;2023-10-19T05:47:40;213.80;;;202.43;;
14013;SDS011;49110;52.584;13.408;2023-10-19T05:48:41;220.30;;;208.53;;
14013;SDS011;49110;52.584;13.408;2023-10-19T05:49:42;218.80;;;207.27;;
14013;SDS011;49110;52.584;13.408;2023-10-19T05:50:42;225.70;;;213.87;;
14013;SDS011;49110;52.584;13.408;2023-10-19T05:51:43;223.97;;;212.00;;
14013;SDS011;49110;52.584;13.408;2023-10-19T05:52:44;228.77;;;216.88;;
14013;SDS011;49110;52.584;13.408;2023-10-19T05:53:45;228.20;;;216.27;;
14013;SDS011;49110;52.584;13.408;2023-10-19T05:54:46;215.53;;;204.03;;
14013;SDS011;49110;52.584;13.408;2023-10-19T05:55:46;215.40;;;203.93;;